Abbott, Pennsylvania
Current Conditions -  °F | °C
As of 4:15 PM on Monday 24 Nov 2014 (Local Time) from KN38 Reporting Station
Overcast Overcast  
Wind Chill: 61°   Ceiling: 6500
Heat Index: 61°   Visibility: 10mi
Dew Point: 50°   Wind: 23mph
Humidity: 68%   Direction: 200°SSW
Pressure: 29.48"   Gusts: 31mph
Location:  41.6755°N, 77.7071°W
Report Text: KN38 242115Z AUTO 20020G27KT 10SM SCT039 BKN065 OVC085 16/10 A2948 RMK AO2
Loading
Personal Weather Stations






























Interactive Weather Map New forecast layout! Learn more

10-Day Weather Forecast

Advertisements
Track Severe Weather on mobile